Time;durP1;ratioP1;P1;durP2;ratioP2;P2;SDS_P1;SDS_P2;PMS_P1;PMS_P2;Temp;Humidity;BMP_temperature;BMP_pressure;BME280_temperature;BME280_humidity;BME280_pressure;Samples;Min_cycle;Max_cycle;Signal;HPM_P1;HPM_P2
2022/07/22 00:02:47;;;;;;;8.10;7.40;;;22.80;91.90;;;;;;10414624;28;20229;-80
2022/07/22 00:07:50;;;;;;;11.87;7.20;;;22.80;92.10;;;;;;10416777;28;20688;-80
2022/07/22 00:12:52;;;;;;;7.00;6.50;;;22.80;92.50;;;;;;10391394;28;20222;-79
2022/07/22 00:17:55;;;;;;;7.30;6.77;;;22.80;92.30;;;;;;10403675;28;20776;-79
2022/07/22 00:23:00;;;;;;;8.77;7.30;;;22.70;91.60;;;;;;10408662;28;20237;-79
2022/07/22 00:28:02;;;;;;;8.00;7.40;;;22.70;92.70;;;;;;10387379;28;20233;-79
2022/07/22 00:33:06;;;;;;;8.10;7.50;;;22.70;93.00;;;;;;10390408;28;20208;-79
2022/07/22 00:38:10;;;;;;;7.77;7.27;;;22.60;91.90;;;;;;10412684;28;20217;-79
2022/07/22 00:43:12;;;;;;;7.70;7.07;;;22.60;92.20;;;;;;10386580;28;20324;-79
2022/07/22 00:48:14;;;;;;;8.63;7.93;;;22.50;92.30;;;;;;10386388;28;20257;-79
2022/07/22 00:53:18;;;;;;;8.67;7.97;;;22.50;91.80;;;;;;10377754;28;20728;-79
2022/07/22 00:58:21;;;;;;;8.30;7.70;;;22.40;92.30;;;;;;10421829;23;20233;-77
2022/07/22 01:03:23;;;;;;;7.57;6.97;;;22.40;92.30;;;;;;10455486;28;20944;-77
2022/07/22 01:08:27;;;;;;;8.97;8.17;;;22.40;92.50;;;;;;10462188;28;20224;-79
2022/07/22 01:13:29;;;;;;;7.80;7.20;;;22.40;92.50;;;;;;10484333;28;20559;-77
2022/07/22 01:18:31;;;;;;;8.43;7.83;;;22.30;92.20;;;;;;10480263;28;20225;-78
2022/07/22 01:23:35;;;;;;;8.87;8.27;;;22.20;92.40;;;;;;10477553;28;20224;-77
2022/07/22 01:28:38;;;;;;;8.70;8.10;;;22.30;93.10;;;;;;10472068;28;20228;-77
2022/07/22 01:33:40;;;;;;;8.73;8.13;;;22.20;92.60;;;;;;10469988;28;20694;-76
2022/07/22 01:38:44;;;;;;;8.93;8.23;;;22.20;93.10;;;;;;10469546;28;20217;-77
2022/07/22 01:43:46;;;;;;;9.30;8.63;;;22.20;92.40;;;;;;10459961;28;20237;-76
2022/07/22 01:48:50;;;;;;;7.67;7.23;;;22.20;92.70;;;;;;10451085;28;20221;-78
2022/07/22 01:53:54;;;;;;;14.20;8.97;;;22.20;93.40;;;;;;10465165;28;20280;-76
2022/07/22 01:58:56;;;;;;;9.17;8.53;;;22.10;93.40;;;;;;10443957;28;20239;-78
2022/07/22 02:04:02;;;;;;;9.17;8.57;;;22.10;93.80;;;;;;10486978;28;20228;-78
2022/07/22 02:09:06;;;;;;;8.93;8.17;;;22.10;93.50;;;;;;10482360;28;20712;-78
2022/07/22 02:14:14;;;;;;;9.87;8.97;;;22.10;93.40;;;;;;10488735;28;20209;-79
2022/07/22 02:19:17;;;;;;;9.43;8.77;;;22.00;93.80;;;;;;10476987;28;20220;-77
2022/07/22 02:24:22;;;;;;;9.23;8.53;;;22.00;93.70;;;;;;10478083;28;20224;-77
2022/07/22 02:29:24;;;;;;;9.30;8.60;;;21.90;93.80;;;;;;10487963;28;20230;-79
2022/07/22 02:34:27;;;;;;;9.07;8.43;;;21.90;93.80;;;;;;10489013;28;20676;-80
2022/07/22 02:39:30;;;;;;;10.23;9.43;;;21.90;93.90;;;;;;10486685;28;20216;-78
2022/07/22 02:44:32;;;;;;;9.57;8.77;;;21.90;94.10;;;;;;10487362;28;20259;-79
2022/07/22 02:49:35;;;;;;;9.40;8.80;;;21.80;93.90;;;;;;10483755;28;20286;-77
2022/07/22 02:54:39;;;;;;;10.10;9.30;;;21.70;94.20;;;;;;10479545;28;20197;-78
2022/07/22 02:59:43;;;;;;;9.90;9.10;;;21.70;94.30;;;;;;10462286;28;20291;-79
2022/07/22 03:04:45;;;;;;;10.70;9.83;;;21.70;94.60;;;;;;10467711;28;20221;-80
2022/07/22 03:09:49;;;;;;;10.43;9.53;;;21.70;94.60;;;;;;10480703;28;20216;-79
2022/07/22 03:14:55;;;;;;;10.53;9.80;;;21.60;94.30;;;;;;10482894;28;20208;-77
2022/07/22 03:19:59;;;;;;;10.67;9.97;;;21.60;94.80;;;;;;10450983;28;20216;-76
2022/07/22 03:25:03;;;;;;;9.07;8.37;;;21.60;95.10;;;;;;10474802;28;20221;-76
2022/07/22 03:30:06;;;;;;;10.53;9.83;;;21.50;94.50;;;;;;10472197;28;20201;-78
2022/07/22 03:35:15;;;;;;;11.20;10.40;;;21.50;94.60;;;;;;10472647;28;20197;-79
2022/07/22 03:40:20;;;;;;;10.97;9.00;;;21.50;94.40;;;;;;10490208;28;20675;-79
2022/07/22 03:45:24;;;;;;;12.10;10.60;;;21.50;94.70;;;;;;10483586;28;20227;-79
2022/07/22 03:50:26;;;;;;;12.03;11.00;;;21.50;95.40;;;;;;10476462;28;20200;-77
2022/07/22 03:55:30;;;;;;;10.63;9.70;;;21.40;95.60;;;;;;10465201;28;20224;-77
2022/07/22 04:00:33;;;;;;;11.23;10.43;;;21.40;95.70;;;;;;10465635;28;20204;-77
2022/07/22 04:05:38;;;;;;;11.40;10.40;;;21.40;95.90;;;;;;10495724;28;20688;-77
2022/07/22 04:10:41;;;;;;;11.93;11.10;;;21.30;96.00;;;;;;10489250;28;20203;-77
2022/07/22 04:15:43;;;;;;;11.37;10.57;;;21.30;95.30;;;;;;10490936;28;20212;-78
2022/07/22 04:20:46;;;;;;;12.00;11.07;;;21.30;95.90;;;;;;10486008;28;20204;-77
2022/07/22 04:26:11;;;;;;;12.23;10.63;;;21.30;96.10;;;;;;10492256;28;20235;-77
2022/07/22 04:31:14;;;;;;;12.17;11.20;;;21.30;96.40;;;;;;10479126;28;20261;-77
2022/07/22 04:36:18;;;;;;;15.00;13.63;;;21.30;96.40;;;;;;10489295;28;20299;-78
2022/07/22 04:41:22;;;;;;;12.87;11.97;;;21.30;96.90;;;;;;10487341;28;20731;-76
2022/07/22 04:46:26;;;;;;;13.00;12.10;;;21.40;96.40;;;;;;10486118;28;20227;-77
2022/07/22 04:51:30;;;;;;;12.77;11.83;;;21.40;96.70;;;;;;10493537;28;20207;-77
2022/07/22 04:56:39;;;;;;;12.20;11.30;;;21.40;96.30;;;;;;10487322;28;20704;-76
2022/07/22 05:01:42;;;;;;;13.10;12.00;;;21.40;96.00;;;;;;10473358;28;20301;-77
2022/07/22 05:06:45;;;;;;;14.00;12.90;;;21.50;96.40;;;;;;10476149;28;20278;-77
2022/07/22 05:11:48;;;;;;;13.10;12.00;;;21.50;96.70;;;;;;10474926;28;20275;-78
2022/07/22 05:16:54;;;;;;;13.97;12.83;;;21.60;96.20;;;;;;10449815;28;20217;-76
2022/07/22 05:21:56;;;;;;;13.70;12.70;;;21.70;96.00;;;;;;10467578;28;20243;-76
2022/07/22 05:26:59;;;;;;;13.67;12.27;;;21.70;96.00;;;;;;10444830;28;20225;-76
2022/07/22 05:32:02;;;;;;;13.70;12.60;;;21.70;96.30;;;;;;10473819;28;20221;-77
2022/07/22 05:37:04;;;;;;;12.63;11.67;;;21.80;96.20;;;;;;10469590;28;20676;-77
2022/07/22 05:42:08;;;;;;;14.37;13.30;;;21.80;95.90;;;;;;10448977;28;20216;-76
2022/07/22 05:47:10;;;;;;;12.63;11.63;;;21.90;96.10;;;;;;10464406;28;20703;-76
2022/07/22 05:52:12;;;;;;;14.57;13.17;;;21.90;96.20;;;;;;10473058;28;20197;-76
2022/07/22 05:57:17;;;;;;;14.50;13.10;;;22.00;96.30;;;;;;10468978;28;20228;-76
2022/07/22 06:02:20;;;;;;;13.73;12.63;;;22.00;95.80;;;;;;10474197;28;20711;-76
2022/07/22 06:07:26;;;;;;;13.70;12.70;;;22.10;96.20;;;;;;10456917;28;20220;-77
2022/07/22 06:12:35;;;;;;;13.07;12.17;;;22.10;95.70;;;;;;10478067;28;20201;-77
2022/07/22 06:17:38;;;;;;;14.43;13.33;;;22.20;95.80;;;;;;10458131;28;20216;-77
2022/07/22 06:22:41;;;;;;;13.90;12.90;;;22.20;96.40;;;;;;10449128;28;20220;-76
2022/07/22 06:27:44;;;;;;;13.37;12.47;;;22.20;96.20;;;;;;10465413;28;20231;-77
2022/07/22 06:32:46;;;;;;;14.50;13.30;;;22.30;96.40;;;;;;10487270;28;20201;-77
2022/07/22 06:37:49;;;;;;;13.20;12.00;;;22.40;96.00;;;;;;10458585;28;20248;-76
2022/07/22 06:42:53;;;;;;;13.57;12.30;;;22.50;95.90;;;;;;10457377;28;20730;-78
2022/07/22 06:48:21;;;;;;;13.83;12.80;;;22.60;95.50;;;;;;10472181;28;20616;-76
2022/07/22 06:53:23;;;;;;;14.13;13.00;;;22.80;95.70;;;;;;10498058;28;20271;-76
2022/07/22 06:58:27;;;;;;;13.73;12.67;;;22.90;95.40;;;;;;10492934;28;20236;-77
2022/07/22 07:03:30;;;;;;;14.43;13.40;;;23.10;95.50;;;;;;10501422;28;20269;-77
2022/07/22 07:08:35;;;;;;;14.70;13.50;;;23.30;94.90;;;;;;10504051;28;20224;-79
2022/07/22 07:13:40;;;;;;;14.80;13.63;;;23.40;94.40;;;;;;10504824;28;20219;-77
2022/07/22 07:18:42;;;;;;;14.27;13.07;;;23.60;94.40;;;;;;10487869;28;20220;-79
2022/07/22 07:23:44;;;;;;;13.30;12.20;;;23.80;93.70;;;;;;10499622;28;20223;-78
2022/07/22 07:28:48;;;;;;;11.50;10.70;;;23.90;93.90;;;;;;10495089;28;20235;-78
2022/07/22 07:33:56;;;;;;;14.27;13.07;;;24.10;93.20;;;;;;10502392;28;20280;-79
2022/07/22 07:38:59;;;;;;;13.47;12.47;;;24.30;93.00;;;;;;10500284;28;20220;-77
2022/07/22 07:44:03;;;;;;;13.90;12.53;;;24.60;92.40;;;;;;10507918;28;20235;-77
2022/07/22 07:49:05;;;;;;;12.50;11.27;;;24.70;92.00;;;;;;10497220;28;20217;-77
2022/07/22 07:54:07;;;;;;;11.60;10.80;;;25.00;92.40;;;;;;10483166;28;20197;-78
2022/07/22 07:59:11;;;;;;;13.20;12.20;;;25.20;92.60;;;;;;10497424;28;20225;-79
2022/07/22 08:04:13;;;;;;;13.10;12.10;;;25.40;91.50;;;;;;10484151;28;20567;-77
2022/07/22 08:09:16;;;;;;;13.60;12.60;;;25.60;91.70;;;;;;10478943;28;20267;-79
2022/07/22 08:14:20;;;;;;;13.80;12.70;;;25.80;91.10;;;;;;10497011;28;20204;-79
2022/07/22 08:19:40;;;;;;;12.57;11.67;;;26.00;90.70;;;;;;10498395;28;20251;-79
2022/07/22 08:24:43;;;;;;;12.33;11.43;;;26.20;91.00;;;;;;10481939;28;20216;-77
2022/07/22 08:29:52;;;;;;;14.60;13.23;;;26.40;90.50;;;;;;10454881;28;20766;-77
2022/07/22 08:34:54;;;;;;;12.67;11.40;;;26.70;88.80;;;;;;10479273;28;20196;-76
2022/07/22 08:39:56;;;;;;;13.40;12.27;;;27.00;88.20;;;;;;10475646;28;20252;-77
2022/07/22 08:45:00;;;;;;;11.37;10.47;;;27.30;89.10;;;;;;10460651;28;20745;-77
2022/07/22 08:50:04;;;;;;;11.90;11.00;;;27.70;86.90;;;;;;10481061;28;20223;-78
2022/07/22 08:55:17;;;;;;;10.63;9.83;;;28.20;85.60;;;;;;10476929;28;20196;-76
2022/07/22 09:00:23;;;;;;;10.80;9.90;;;28.70;83.40;;;;;;10487157;28;20230;-80
2022/07/22 09:05:33;;;;;;;10.37;9.47;;;29.10;82.60;;;;;;10495990;28;20278;-79
2022/07/22 09:10:37;;;;;;;12.57;11.57;;;29.70;81.90;;;;;;10488793;28;20740;-78
2022/07/22 09:15:59;;;;;;;11.80;10.80;;;30.20;78.80;;;;;;10496481;28;20625;-81
2022/07/22 09:21:14;;;;;;;9.70;9.00;;;30.60;76.50;;;;;;10498644;28;20376;-78
2022/07/22 09:26:36;;;;;;;9.23;8.53;;;31.10;75.60;;;;;;10488773;28;20235;-81
2022/07/22 09:31:58;;;;;;;10.87;9.97;;;31.50;73.90;;;;;;10485542;28;20680;-78
2022/07/22 09:37:19;;;;;;;10.10;8.83;;;31.80;72.30;;;;;;10490741;28;20833;-78
2022/07/22 09:42:22;;;;;;;10.10;9.50;;;32.10;72.20;;;;;;10478035;28;20212;-78
2022/07/22 09:47:32;;;;;;;10.33;9.53;;;32.40;71.10;;;;;;10495123;28;20212;-78
2022/07/22 09:52:58;;;;;;;10.63;9.93;;;32.80;69.50;;;;;;10483271;28;20192;-79
2022/07/22 09:58:05;;;;;;;9.50;8.90;;;33.30;67.20;;;;;;10488097;28;20271;-78
2022/07/22 10:03:18;;;;;;;9.43;8.83;;;33.80;65.80;;;;;;10491921;28;20219;-79
2022/07/22 10:08:21;;;;;;;9.77;9.07;;;34.70;64.40;;;;;;10495229;28;20765;-79
2022/07/22 10:13:24;;;;;;;9.05;8.40;;;35.70;61.00;;;;;;10467204;28;20189;-77
2022/07/22 10:18:29;;;;;;;9.93;9.15;;;36.80;59.50;;;;;;10467866;28;20216;-78
2022/07/22 10:23:35;;;;;;;10.02;9.32;;;37.80;56.70;;;;;;10491000;28;20545;-79
2022/07/22 10:28:38;;;;;;;10.13;9.43;;;37.80;55.80;;;;;;10494926;28;20228;-80
2022/07/22 10:33:42;;;;;;;10.33;9.33;;;36.40;56.00;;;;;;10450081;28;20211;-79
2022/07/22 10:39:04;;;;;;;10.63;9.77;;;34.90;59.30;;;;;;10442679;28;20714;-78
2022/07/22 10:44:07;;;;;;;9.37;8.80;;;33.50;61.00;;;;;;10442765;28;20225;-79
2022/07/22 10:49:11;;;;;;;9.17;8.57;;;32.50;62.40;;;;;;10443085;28;20271;-77
2022/07/22 10:54:13;;;;;;;10.17;8.57;;;31.60;63.40;;;;;;10448173;28;20226;-79
2022/07/22 10:59:19;;;;;;;10.70;10.00;;;30.90;66.60;;;;;;10451335;28;20229;-79
2022/07/22 11:04:25;;;;;;;10.53;9.83;;;30.40;68.30;;;;;;10451253;28;20304;-79
2022/07/22 11:09:33;;;;;;;10.30;9.70;;;30.00;68.30;;;;;;10450531;28;20221;-79
2022/07/22 11:14:36;;;;;;;10.13;9.33;;;29.60;71.30;;;;;;10451073;28;20281;-79
2022/07/22 11:19:40;;;;;;;10.90;10.00;;;29.40;70.20;;;;;;10450952;28;20213;-79
2022/07/22 11:24:43;;;;;;;11.43;10.50;;;29.20;70.40;;;;;;10451830;28;20221;-79
2022/07/22 11:29:50;;;;;;;9.50;8.90;;;29.00;72.10;;;;;;10453899;28;20279;-78
2022/07/22 11:34:53;;;;;;;9.47;8.87;;;28.90;71.80;;;;;;10453889;28;20875;-79
2022/07/22 11:40:00;;;;;;;9.30;8.67;;;28.80;69.70;;;;;;10458469;28;20224;-77
2022/07/22 11:45:03;;;;;;;9.20;8.50;;;28.60;70.80;;;;;;10466789;28;20581;-79
2022/07/22 11:50:08;;;;;;;9.27;8.57;;;28.60;67.70;;;;;;10458370;28;20736;-79
2022/07/22 11:55:16;;;;;;;9.00;8.40;;;28.60;67.40;;;;;;10458586;28;20208;-77
2022/07/22 12:00:19;;;;;;;9.43;8.90;;;28.60;67.80;;;;;;10459475;28;20196;-79
2022/07/22 12:05:23;;;;;;;9.73;8.93;;;28.50;71.20;;;;;;10456964;28;20311;-79
2022/07/22 12:10:25;;;;;;;10.23;9.50;;;28.50;69.80;;;;;;10455462;28;20201;-79
2022/07/22 12:15:27;;;;;;;9.53;8.80;;;28.50;70.40;;;;;;10456214;28;20217;-79
2022/07/22 12:20:31;;;;;;;10.27;9.57;;;28.40;73.60;;;;;;10455321;28;20274;-79
2022/07/22 12:25:33;;;;;;;9.47;8.87;;;28.40;72.50;;;;;;10455226;28;20741;-78
2022/07/22 12:30:35;;;;;;;8.63;8.00;;;28.40;72.30;;;;;;10455979;28;20223;-79
2022/07/22 12:35:38;;;;;;;8.03;7.53;;;28.30;70.20;;;;;;10456870;28;20372;-80
2022/07/22 12:40:41;;;;;;;8.03;7.53;;;28.30;70.00;;;;;;10468580;28;20228;-78
2022/07/22 12:45:43;;;;;;;9.23;8.53;;;28.30;71.00;;;;;;10465462;28;20217;-79
2022/07/22 12:50:56;;;;;;;9.23;8.57;;;28.30;69.90;;;;;;10458452;28;20695;-79
2022/07/22 12:56:00;;;;;;;9.43;8.80;;;28.40;70.50;;;;;;10478035;22;20197;-81
2022/07/22 13:01:03;;;;;;;9.60;9.00;;;28.50;68.60;;;;;;10502737;28;20195;-81
2022/07/22 13:06:10;;;;;;;9.13;8.53;;;28.50;70.30;;;;;;10478807;28;20642;-81
2022/07/22 13:11:12;;;;;;;8.97;8.27;;;28.60;69.20;;;;;;10509771;28;20189;-81
2022/07/22 13:16:14;;;;;;;9.50;8.90;;;28.60;70.10;;;;;;10518352;28;20227;-80
2022/07/22 13:21:18;;;;;;;9.13;8.40;;;28.70;67.20;;;;;;10482406;28;20280;-80
2022/07/22 13:26:20;;;;;;;8.60;8.00;;;28.70;67.10;;;;;;10501845;28;20228;-79
2022/07/22 13:31:22;;;;;;;8.63;7.90;;;28.70;64.20;;;;;;10473702;28;20225;-79
2022/07/22 13:36:28;;;;;;;6.93;6.50;;;28.70;64.80;;;;;;10456545;28;20232;-79
2022/07/22 13:41:30;;;;;;;7.07;6.60;;;28.80;65.50;;;;;;10457474;28;20193;-80
2022/07/22 13:46:32;;;;;;;8.50;8.00;;;28.70;67.50;;;;;;10488196;28;20244;-79
2022/07/22 13:51:35;;;;;;;9.07;8.13;;;28.70;67.20;;;;;;10467781;28;20246;-79
2022/07/22 13:56:37;;;;;;;8.73;8.13;;;28.70;68.90;;;;;;10486987;28;20271;-80
2022/07/22 14:01:40;;;;;;;9.10;8.40;;;28.70;66.70;;;;;;10498083;28;20672;-79
2022/07/22 14:06:43;;;;;;;8.10;7.50;;;28.70;65.30;;;;;;10466493;28;20232;-80
2022/07/22 14:11:46;;;;;;;8.03;7.53;;;28.80;68.70;;;;;;10453728;28;20193;-80
2022/07/22 14:16:48;;;;;;;7.87;7.37;;;28.70;69.70;;;;;;10456288;28;20681;-80
2022/07/22 14:21:51;;;;;;;8.50;8.00;;;28.60;71.60;;;;;;10484004;28;20199;-80
2022/07/22 14:26:53;;;;;;;8.20;7.70;;;28.60;66.70;;;;;;10495719;28;20313;-80
2022/07/22 14:31:55;;;;;;;8.43;7.83;;;28.70;69.00;;;;;;10466970;28;20268;-79
2022/07/22 14:36:59;;;;;;;8.50;7.80;;;28.70;69.50;;;;;;10476444;28;20213;-79
2022/07/22 14:42:01;;;;;;;8.77;8.27;;;28.70;66.10;;;;;;10493957;28;20189;-79
2022/07/22 14:47:03;;;;;;;8.70;8.10;;;28.70;67.90;;;;;;10468912;28;20252;-79
2022/07/22 14:52:06;;;;;;;8.63;8.13;;;28.80;65.40;;;;;;10482046;28;20227;-78
2022/07/22 14:57:09;;;;;;;8.57;8.07;;;28.80;64.40;;;;;;10469390;28;20736;-79
2022/07/22 15:02:11;;;;;;;9.50;8.70;;;28.80;65.00;;;;;;10481064;28;20188;-79
2022/07/22 15:07:14;;;;;;;8.10;7.53;;;28.90;63.90;;;;;;10496696;28;20569;-80
2022/07/22 15:12:16;;;;;;;7.70;7.20;;;28.90;64.10;;;;;;10479367;28;20722;-79
2022/07/22 15:17:18;;;;;;;7.83;7.33;;;28.90;66.20;;;;;;10461412;28;20717;-79
2022/07/22 15:22:24;;;;;;;7.80;7.30;;;28.80;67.70;;;;;;10501939;28;20197;-79
2022/07/22 15:27:27;;;;;;;7.10;6.70;;;28.70;69.60;;;;;;10496340;28;20217;-79
2022/07/22 15:32:29;;;;;;;7.67;7.17;;;28.70;68.60;;;;;;10496871;28;20189;-79
2022/07/22 15:37:32;;;;;;;7.97;7.37;;;28.60;67.60;;;;;;10491194;28;20213;-78
2022/07/22 15:42:34;;;;;;;7.30;6.90;;;28.50;67.40;;;;;;10496809;28;20207;-78
2022/07/22 15:47:36;;;;;;;8.67;8.07;;;28.60;66.90;;;;;;10491913;28;20292;-79
2022/07/22 15:52:40;;;;;;;8.07;7.47;;;28.60;65.30;;;;;;10495896;28;20238;-78
2022/07/22 16:03:02;;;;;;;7.60;7.00;;;28.80;67.50;;;;;;10471349;28;20193;-77
2022/07/22 16:08:06;;;;;;;8.20;7.70;;;28.70;67.50;;;;;;10497564;28;20220;-79
2022/07/22 16:13:08;;;;;;;8.57;7.73;;;28.70;72.20;;;;;;10489946;28;20354;-78
2022/07/22 16:18:11;;;;;;;7.97;7.47;;;28.60;64.70;;;;;;10497035;28;20300;-78
2022/07/22 16:23:15;;;;;;;8.13;7.63;;;28.60;68.30;;;;;;10481543;28;20209;-78
2022/07/22 16:28:17;;;;;;;8.60;7.90;;;28.50;66.20;;;;;;10473027;28;20388;-78
2022/07/22 16:33:19;;;;;;;8.60;8.10;;;28.50;68.60;;;;;;10474175;28;20341;-79
2022/07/22 16:38:22;;;;;;;7.90;7.50;;;28.50;63.20;;;;;;10475266;28;20227;-79
2022/07/22 16:43:25;;;;;;;6.77;6.37;;;28.70;66.10;;;;;;10477713;28;20215;-78
2022/07/22 16:48:27;;;;;;;8.33;7.73;;;28.90;65.40;;;;;;10475810;28;20247;-79
2022/07/22 16:53:30;;;;;;;8.90;8.30;;;29.00;66.30;;;;;;10476111;28;20300;-79
2022/07/22 16:58:33;;;;;;;8.27;7.47;;;29.20;62.60;;;;;;10474624;28;20225;-79
2022/07/22 17:03:35;;;;;;;7.97;7.47;;;29.20;65.20;;;;;;10473234;28;20239;-79
2022/07/22 17:08:38;;;;;;;7.00;6.50;;;29.10;64.80;;;;;;10476128;28;20663;-80
2022/07/22 17:13:44;;;;;;;8.43;7.73;;;29.00;65.50;;;;;;10473753;28;20205;-79
2022/07/22 17:18:46;;;;;;;7.80;7.20;;;29.00;65.60;;;;;;10475055;28;20336;-78
2022/07/22 17:23:52;;;;;;;7.73;7.07;;;29.10;64.50;;;;;;10461287;28;20304;-79
2022/07/22 17:28:55;;;;;;;6.73;6.33;;;29.10;68.70;;;;;;10478088;28;20227;-79
2022/07/22 17:33:57;;;;;;;7.33;6.77;;;29.00;65.00;;;;;;10477469;28;20192;-79
2022/07/22 17:39:00;;;;;;;8.00;7.40;;;29.00;65.90;;;;;;10476223;28;20235;-79
2022/07/22 17:44:02;;;;;;;8.13;7.53;;;28.90;68.00;;;;;;10475585;28;20225;-79
2022/07/22 17:49:06;;;;;;;7.60;7.10;;;28.90;66.60;;;;;;10481637;28;20256;-79
2022/07/22 17:54:09;;;;;;;8.60;8.00;;;28.90;64.70;;;;;;10471739;28;20201;-80
2022/07/22 17:59:11;;;;;;;9.40;8.53;;;28.90;65.90;;;;;;10461516;28;20244;-79
2022/07/22 18:04:13;;;;;;;9.40;8.60;;;29.00;67.60;;;;;;10474388;28;20220;-79
2022/07/22 18:09:17;;;;;;;8.50;7.90;;;29.00;67.30;;;;;;10460981;28;20237;-79
2022/07/22 18:14:19;;;;;;;9.60;8.90;;;29.00;67.60;;;;;;10475746;28;20642;-79
2022/07/22 18:19:21;;;;;;;8.67;7.97;;;29.00;67.80;;;;;;10474710;28;20243;-79
2022/07/22 18:24:24;;;;;;;10.30;7.50;;;28.90;68.40;;;;;;10481369;28;20259;-80
2022/07/22 18:29:27;;;;;;;8.33;7.83;;;28.80;67.20;;;;;;10475117;28;20232;-78
2022/07/22 18:34:29;;;;;;;8.70;8.10;;;28.70;67.70;;;;;;10475328;28;20208;-79
2022/07/22 18:39:33;;;;;;;9.60;8.90;;;28.60;66.80;;;;;;10474034;28;20223;-80
2022/07/22 18:44:35;;;;;;;7.90;7.40;;;28.50;67.50;;;;;;10465090;28;20680;-79
2022/07/22 18:49:37;;;;;;;7.97;7.30;;;28.40;67.60;;;;;;10487585;28;20263;-79
2022/07/22 18:54:41;;;;;;;9.03;8.43;;;28.40;67.00;;;;;;10484440;28;20205;-80
2022/07/22 18:59:43;;;;;;;8.20;7.50;;;28.30;68.50;;;;;;10507980;22;20262;-76
2022/07/22 19:04:45;;;;;;;8.77;8.20;;;28.20;68.50;;;;;;10498321;28;20273;-78
2022/07/22 19:09:48;;;;;;;8.50;7.90;;;28.00;69.10;;;;;;10499352;28;20224;-78
2022/07/22 19:14:51;;;;;;;8.83;8.23;;;27.90;69.80;;;;;;10498202;28;20702;-77
2022/07/22 19:19:53;;;;;;;8.70;8.00;;;27.80;70.90;;;;;;10491725;28;20741;-77
2022/07/22 19:24:56;;;;;;;8.67;8.07;;;27.70;71.70;;;;;;10502324;28;20715;-81
2022/07/22 19:29:58;;;;;;;9.23;8.43;;;27.60;71.20;;;;;;10503838;28;20268;-81
2022/07/22 19:35:00;;;;;;;8.40;7.90;;;27.60;73.20;;;;;;10502361;28;20618;-81
2022/07/22 19:40:04;;;;;;;8.17;7.67;;;27.50;76.40;;;;;;10501283;28;20278;-81
2022/07/22 19:45:07;;;;;;;8.80;8.20;;;27.40;74.50;;;;;;10504768;28;20213;-81
2022/07/22 19:50:10;;;;;;;9.77;8.90;;;27.40;77.40;;;;;;10504177;28;20240;-81
2022/07/22 19:55:13;;;;;;;8.57;7.93;;;27.20;75.30;;;;;;10500659;28;20570;-79
2022/07/22 20:00:16;;;;;;;8.80;8.00;;;27.20;75.40;;;;;;10505302;28;20228;-79
2022/07/22 20:05:18;;;;;;;8.50;8.00;;;27.20;75.80;;;;;;10485227;28;20599;-79
2022/07/22 20:10:22;;;;;;;9.33;8.50;;;27.10;77.00;;;;;;10505251;28;20291;-79
2022/07/22 20:15:36;;;;;;;9.73;9.03;;;27.00;77.50;;;;;;10504496;28;20197;-79
2022/07/22 20:20:43;;;;;;;9.13;8.53;;;26.90;77.70;;;;;;10487663;28;20216;-81
2022/07/22 20:25:46;;;;;;;9.37;8.67;;;26.80;78.70;;;;;;10503661;28;20571;-81
2022/07/22 20:30:49;;;;;;;9.57;8.63;;;26.70;78.90;;;;;;10506555;28;20225;-81
2022/07/22 20:35:51;;;;;;;10.90;9.90;;;26.60;77.90;;;;;;10508663;28;20235;-80
2022/07/22 20:40:54;;;;;;;9.63;8.63;;;26.60;78.60;;;;;;10503742;28;20269;-81
2022/07/22 20:45:56;;;;;;;9.80;9.10;;;26.50;78.50;;;;;;10498453;28;20304;-81
2022/07/22 20:50:58;;;;;;;8.87;8.20;;;26.50;78.70;;;;;;10500925;28;20216;-81
2022/07/22 20:56:02;;;;;;;9.27;8.67;;;26.50;79.10;;;;;;10501929;28;20200;-81
2022/07/22 21:01:04;;;;;;;9.30;8.60;;;26.40;78.80;;;;;;10498811;28;20692;-80
2022/07/22 21:06:07;;;;;;;9.20;8.47;;;26.50;79.00;;;;;;10497475;28;20216;-82
2022/07/22 21:11:14;;;;;;;9.50;8.80;;;26.40;80.50;;;;;;10482516;28;20232;-80
2022/07/22 21:16:16;;;;;;;9.40;8.80;;;26.40;80.40;;;;;;10476759;28;20620;-79
2022/07/22 21:21:18;;;;;;;8.40;7.90;;;26.40;81.30;;;;;;10498377;28;20234;-80
2022/07/22 21:26:22;;;;;;;8.43;7.83;;;26.40;80.70;;;;;;10495219;28;20301;-80
2022/07/22 21:31:24;;;;;;;8.70;8.00;;;26.30;80.10;;;;;;10498990;28;20279;-81
2022/07/22 21:36:26;;;;;;;9.20;8.50;;;26.30;80.70;;;;;;10496862;28;20199;-78
2022/07/22 21:41:29;;;;;;;9.70;8.93;;;26.30;81.10;;;;;;10492308;28;20204;-78
2022/07/22 21:46:32;;;;;;;9.53;8.73;;;26.30;81.40;;;;;;10492594;28;20266;-77
2022/07/22 21:51:34;;;;;;;9.43;8.73;;;26.20;81.30;;;;;;10493690;28;20193;-77
2022/07/22 21:56:56;;;;;;;8.57;7.90;;;26.20;80.80;;;;;;10492098;28;20219;-77
2022/07/22 22:02:01;;;;;;;9.93;9.03;;;26.30;80.50;;;;;;10493386;28;20202;-77
2022/07/22 22:07:03;;;;;;;8.97;8.27;;;26.20;82.90;;;;;;10491691;28;20231;-77
2022/07/22 22:12:07;;;;;;;9.30;8.50;;;26.20;85.70;;;;;;10492885;28;20242;-77
2022/07/22 22:17:09;;;;;;;9.90;9.20;;;26.20;83.70;;;;;;10490790;28;20217;-78
2022/07/22 22:22:11;;;;;;;10.83;9.93;;;26.20;86.50;;;;;;10486432;28;20224;-78
2022/07/22 22:27:15;;;;;;;10.40;9.60;;;26.10;85.80;;;;;;10485814;28;20255;-77
2022/07/22 22:32:17;;;;;;;10.13;9.27;;;26.10;85.80;;;;;;10492963;28;20276;-77
2022/07/22 22:37:19;;;;;;;10.50;9.63;;;26.10;82.40;;;;;;10490559;28;20212;-77
2022/07/22 22:42:23;;;;;;;11.00;10.20;;;26.10;84.30;;;;;;10498185;28;20192;-78
2022/07/22 22:47:25;;;;;;;11.13;10.40;;;25.90;88.60;;;;;;10492137;28;20240;-78
2022/07/22 22:52:27;;;;;;;9.90;9.20;;;25.80;90.40;;;;;;10487130;28;20192;-78
2022/07/22 22:57:31;;;;;;;10.50;9.70;;;25.90;90.50;;;;;;10490988;28;20224;-79
2022/07/22 23:02:33;;;;;;;10.67;9.77;;;25.90;87.50;;;;;;10490644;28;20551;-79
2022/07/22 23:07:35;;;;;;;10.03;9.33;;;25.90;86.80;;;;;;10491084;28;20220;-78
2022/07/22 23:12:39;;;;;;;9.53;8.93;;;25.90;85.60;;;;;;10491744;28;20192;-79
2022/07/22 23:17:41;;;;;;;10.53;9.73;;;25.90;85.40;;;;;;10491528;28;20216;-78
2022/07/22 23:22:43;;;;;;;9.47;8.70;;;25.90;86.40;;;;;;10487082;28;20224;-80
2022/07/22 23:27:47;;;;;;;9.87;9.07;;;25.90;84.10;;;;;;10490951;28;20282;-77
2022/07/22 23:32:49;;;;;;;8.63;7.93;;;25.90;83.10;;;;;;10504311;28;20300;-79
2022/07/22 23:37:51;;;;;;;7.77;7.27;;;25.90;82.40;;;;;;10496235;28;20252;-77
2022/07/22 23:42:55;;;;;;;8.00;7.50;;;25.90;78.80;;;;;;10495729;28;20684;-81
2022/07/22 23:47:57;;;;;;;8.20;7.70;;;25.90;75.90;;;;;;10503730;28;20662;-79
2022/07/22 23:53:00;;;;;;;6.70;6.30;;;26.00;76.90;;;;;;10503684;28;20606;-79
2022/07/22 23:58:03;;;;;;;7.70;7.20;;;26.00;75.70;;;;;;10505274;28;20228;-79
